WetterOnline ( https://www.wetteronline.de )

Wetter aktuell Böblingen

Aktuelles Wetter: Schnarrenberg/Stuttgart (315m)

6-stündlich | Neueste Meldungen
Ortszeit Temperatur Wetter
So, 22.09. 8:00 9.2° C wolkenlos
So, 22.09. 2:00 11.0° C wolkenlos
Sa, 21.09. 20:00 18.4° C wolkenlos
Sa, 21.09. 14:00 20.5° C wolkenlos
Sa, 21.09. 8:00 7.1° C wolkenlos
Sa, 21.09. 2:00 8.7° C wolkenlos
Fr, 20.09. 20:00 14.7° C wolkig
Fr, 20.09. 14:00 17.0° C leicht bewölkt
Ortszeit Temperatur Wetter
So, 22.09. 13:30 20.2° C bedeckt
So, 22.09. 13:20 20.2° C bedeckt
So, 22.09. 13:10 19.8° C bedeckt
So, 22.09. 13:00 19.5° C wolkig
So, 22.09. 12:50 19.5° C bedeckt
So, 22.09. 12:40 19.4° C bewölkt
So, 22.09. 12:30 17.6° C bedeckt
So, 22.09. 12:00 15.8° C bedeckt
Ortszeit Relative Feuchte Sichtweite
So, 22.09. 8:00 88% 40 km
So, 22.09. 2:00 80% 40 km
Sa, 21.09. 20:00 45% 50 km
Sa, 21.09. 14:00 35% 65 km
Sa, 21.09. 8:00 77% 45 km
Sa, 21.09. 2:00 70% 50 km
Fr, 20.09. 20:00 46% 65 km
Fr, 20.09. 14:00 36% 65 km
Ortszeit Relative Feuchte Sichtweite
So, 22.09. 13:30 51% 65 km
So, 22.09. 13:20 51% -
So, 22.09. 13:10 53% -
So, 22.09. 13:00 53% >70 km
So, 22.09. 12:50 53% -
So, 22.09. 12:40 54% -
So, 22.09. 12:30 57% 40 km
So, 22.09. 12:00 62% 50 km
Ortszeit Niederschlagsmenge Niederschlagsart
So, 22.09. 8:00 0.0 l/m2 in 12 Std. -
So, 22.09. 2:00 0.0 l/m2 in 6 Std. -
Sa, 21.09. 20:00 0.0 l/m2 in 12 Std. -
Sa, 21.09. 14:00 0.0 l/m2 in 6 Std. -
Sa, 21.09. 8:00 0.0 l/m2 in 12 Std. -
Sa, 21.09. 2:00 0.0 l/m2 in 6 Std. -
Fr, 20.09. 20:00 0.0 l/m2 in 12 Std. -
Fr, 20.09. 14:00 0.0 l/m2 in 6 Std. -
Ortszeit Niederschlagsmenge Niederschlagsart
So, 22.09. 13:30 0.0 l/m2 in 1 Std. -
So, 22.09. 13:20 keine Meldung -
So, 22.09. 13:10 keine Meldung -
So, 22.09. 13:00 0.0 l/m2 in 1 Std. -
So, 22.09. 12:50 keine Meldung -
So, 22.09. 12:40 keine Meldung -
So, 22.09. 12:30 0.0 l/m2 in 1 Std. -
So, 22.09. 12:00 0.0 l/m2 in 1 Std. -
Ortszeit Stärke Spitze Richtung
km/h Bft. km/h Grad Sektor
So, 22.09. 8:00 13 3 19 140° SO
So, 22.09. 2:00 4 1 18 170° S
Sa, 21.09. 20:00 13 3 30 130° SO
Sa, 21.09. 14:00 9 2 17 90° O
Sa, 21.09. 8:00 4 1 11 120° SO
Sa, 21.09. 2:00 9 2 19 110° O
Fr, 20.09. 20:00 14 3 29 100° O
Fr, 20.09. 14:00 14 3 32 120° SO
Ortszeit Stärke Spitze Richtung
km/h Bft. km/h Grad Sektor
So, 22.09. 13:30 7 2 11 90° O
So, 22.09. 13:20 7 2 - 90° O
So, 22.09. 13:10 7 2 - 110° O
So, 22.09. 13:00 7 2 13 130° SO
So, 22.09. 12:50 7 2 - 130° SO
So, 22.09. 12:40 7 2 - 110° O
So, 22.09. 12:30 7 2 14 150° SO
So, 22.09. 12:00 11 2 18 160° S
Ortszeit Untergrenze Bedeckung Gattung
total tief tief mittel hoch
So, 22.09. 8:00 - 0/8 0/8 - - -
So, 22.09. 2:00 - 0/8 0/8 - - -
Sa, 21.09. 20:00 - 0/8 0/8 - - -
Sa, 21.09. 14:00 - 0/8 0/8 - - -
Sa, 21.09. 8:00 - 0/8 0/8 - - -
Sa, 21.09. 2:00 - 0/8 0/8 - - -
Fr, 20.09. 20:00 10500 m 8/8 0/8 - - -
Fr, 20.09. 14:00 9000 m 8/8 0/8 - - -
Ortszeit Bedeckungsgrad in Achtel und Wolkenuntergrenze
So, 22.09. 13:30 6(4200m) 8(5100m) 8(6900m)
So, 22.09. 13:20 6(4200m) 8(5100m) 8(6900m)
So, 22.09. 13:10 5(4200m) 8(5100m) 8(7200m)
So, 22.09. 13:00 7(4500m) 8(6900m) 8(7500m)
So, 22.09. 12:50 7(4500m) 8(6900m) 8(7500m)
So, 22.09. 12:40 7(4500m) 7(7200m) 7(9000m)
So, 22.09. 12:30 8(4500m) 8(6000m) 8(6600m)
So, 22.09. 12:00 8(4500m) 8(6900m) 8(6900m)
Ortszeit Luftdruck NN (hPa) Tendenz (hPa in 3 Std.)
So, 22.09. 8:00 1014 - 0,5
So, 22.09. 2:00 1015 - 1,5
Sa, 21.09. 20:00 1016 - 0,7
Sa, 21.09. 14:00 1019 - 2,0
Sa, 21.09. 8:00 1023 - 0,4
Sa, 21.09. 2:00 1024 - 1,1
Fr, 20.09. 20:00 1025 - 0,4
Fr, 20.09. 14:00 1027 - 1,4
Ortszeit Luftdruck NN (hPa) Tendenz (hPa in 3 Std.)
So, 22.09. 13:30 1011 - 1,5
So, 22.09. 13:20 1011 keine Meldung
So, 22.09. 13:10 1011 keine Meldung
So, 22.09. 13:00 1011 - 1,3
So, 22.09. 12:50 1011 keine Meldung
So, 22.09. 12:40 1011 keine Meldung
So, 22.09. 12:30 1012 - 1,0
So, 22.09. 12:00 1012 - 0,6
Ortszeit Schneehöhe (cm)
So, 22.09. 8:00 -
So, 22.09. 2:00 -
Sa, 21.09. 20:00 -
Sa, 21.09. 14:00 -
Sa, 21.09. 8:00 -
Sa, 21.09. 2:00 -
Fr, 20.09. 20:00 -
Fr, 20.09. 14:00 -
Ortszeit Schneehöhe (cm)
So, 22.09. 13:30 -
So, 22.09. 13:20 -
So, 22.09. 13:10 -
So, 22.09. 13:00 -
So, 22.09. 12:50 -
So, 22.09. 12:40 -
So, 22.09. 12:30 -
So, 22.09. 12:00 -
Link zu dieser Seite / Seite empfehlen

Das Wetter in ...